createdAt,value
2018-10-17T00:00:18.262Z,38.42
2018-10-17T00:02:47.972Z,38.97
2018-10-17T00:05:17.688Z,38.37
2018-10-17T00:07:47.279Z,38.91
2018-10-17T00:10:17.405Z,39.00
2018-10-17T00:12:47.637Z,38.87
2018-10-17T00:15:17.237Z,38.91
2018-10-17T00:17:46.740Z,38.90
2018-10-17T00:20:16.362Z,38.40
2018-10-17T00:22:46.043Z,38.32
2018-10-17T00:25:15.879Z,39.04
2018-10-17T00:27:45.384Z,38.46
2018-10-17T00:30:15.096Z,38.99
2018-10-17T00:32:44.695Z,38.45
2018-10-17T00:35:14.380Z,38.34
2018-10-17T00:37:43.918Z,38.43
2018-10-17T00:40:13.324Z,38.93
2018-10-17T00:42:42.923Z,39.00
2018-10-17T00:45:12.437Z,38.92
2018-10-17T00:47:41.830Z,38.70
2018-10-17T00:50:11.444Z,38.52
2018-10-17T00:52:41.558Z,38.93
2018-10-17T00:55:11.172Z,39.00
2018-10-17T00:57:40.039Z,39.06
2018-10-17T01:00:09.036Z,38.69
2018-10-17T01:02:38.020Z,38.49
2018-10-17T01:05:07.351Z,38.92
2018-10-17T01:07:36.437Z,39.08
2018-10-17T01:10:05.852Z,39.02
2018-10-17T01:12:34.950Z,39.04
2018-10-17T01:15:04.042Z,39.16
2018-10-17T01:17:33.140Z,38.95
2018-10-17T01:20:01.889Z,38.53
2018-10-17T01:22:30.596Z,38.55
2018-10-17T01:24:59.434Z,38.53
2018-10-17T01:27:28.248Z,38.56
2018-10-17T01:29:56.998Z,39.09
2018-10-17T01:32:25.849Z,39.32
2018-10-17T01:34:54.664Z,38.80
2018-10-17T01:37:23.461Z,39.08
2018-10-17T01:39:52.203Z,38.92
2018-10-17T01:42:20.953Z,38.87
2018-10-17T01:44:49.732Z,38.99
2018-10-17T01:47:18.479Z,39.45
2018-10-17T01:49:47.238Z,39.21
2018-10-17T01:52:16.000Z,39.38
2018-10-17T01:54:44.840Z,39.63
2018-10-17T01:57:13.657Z,39.68
2018-10-17T01:59:42.467Z,39.25
2018-10-17T02:02:11.325Z,39.14
2018-10-17T02:04:40.066Z,39.04
2018-10-17T02:07:08.852Z,39.20
2018-10-17T02:09:37.635Z,39.24
2018-10-17T02:12:06.696Z,39.87
2018-10-17T02:14:35.445Z,39.28
2018-10-17T02:17:04.594Z,39.35
2018-10-17T02:19:33.333Z,39.79
2018-10-17T02:22:02.154Z,39.77
2018-10-17T02:24:30.888Z,39.54
2018-10-17T02:26:59.758Z,39.70
2018-10-17T02:29:28.533Z,39.56
2018-10-17T02:31:57.389Z,39.28
2018-10-17T02:34:26.193Z,39.18
2018-10-17T02:36:54.971Z,39.21
2018-10-17T02:39:23.821Z,39.21
2018-10-17T02:41:52.564Z,39.69
2018-10-17T02:44:21.279Z,39.71
2018-10-17T02:46:50.012Z,39.43
2018-10-17T02:49:18.754Z,39.80
2018-10-17T02:51:47.554Z,39.29
2018-10-17T02:54:16.312Z,39.27
2018-10-17T02:56:45.133Z,39.71
2018-10-17T02:59:13.926Z,39.73
2018-10-17T03:01:42.704Z,39.19
2018-10-17T03:04:11.574Z,39.86
2018-10-17T03:06:40.360Z,39.48
2018-10-17T03:09:09.636Z,39.33
2018-10-17T03:11:38.406Z,39.95
2018-10-17T03:14:07.198Z,39.24
2018-10-17T03:16:35.925Z,39.86
2018-10-17T03:19:04.983Z,39.89
2018-10-17T03:21:33.721Z,39.91
2018-10-17T03:24:02.557Z,39.37
2018-10-17T03:26:31.295Z,39.90
2018-10-17T03:29:00.056Z,39.80
2018-10-17T03:31:29.040Z,39.38
2018-10-17T03:33:57.765Z,39.44
2018-10-17T03:36:26.547Z,40.11
2018-10-17T03:38:55.404Z,39.62
2018-10-17T03:41:24.248Z,39.76
2018-10-17T03:43:53.002Z,40.24
2018-10-17T03:46:21.898Z,39.81
2018-10-17T03:48:50.632Z,40.35
2018-10-17T03:51:19.464Z,40.25
2018-10-17T03:53:48.236Z,40.27
2018-10-17T03:56:17.100Z,39.72
2018-10-17T03:58:45.896Z,40.14
2018-10-17T04:01:14.668Z,40.16
2018-10-17T04:03:43.574Z,39.56
2018-10-17T04:06:12.325Z,40.09
2018-10-17T04:08:41.118Z,40.12
2018-10-17T04:11:09.929Z,39.63
2018-10-17T04:13:38.632Z,40.02
2018-10-17T04:16:07.414Z,40.07
2018-10-17T04:18:36.236Z,39.41
2018-10-17T04:21:05.597Z,39.57
2018-10-17T04:23:34.383Z,39.32
2018-10-17T04:26:03.150Z,39.36
2018-10-17T04:28:32.658Z,39.26
2018-10-17T04:31:01.436Z,39.56
2018-10-17T04:33:30.170Z,39.33
2018-10-17T04:35:58.977Z,39.29
2018-10-17T04:38:28.020Z,39.88
2018-10-17T04:40:56.859Z,39.92
2018-10-17T04:43:25.635Z,39.78
2018-10-17T04:45:54.569Z,39.42
2018-10-17T04:48:23.430Z,39.81
2018-10-17T04:50:52.159Z,39.23
2018-10-17T04:53:20.906Z,39.48
2018-10-17T04:55:49.765Z,39.25
2018-10-17T04:58:18.540Z,39.48
2018-10-17T05:00:47.367Z,39.86
2018-10-17T05:03:16.123Z,39.91
2018-10-17T05:05:44.902Z,40.18
2018-10-17T05:08:13.698Z,40.08
2018-10-17T05:10:42.492Z,40.37
2018-10-17T05:13:11.369Z,39.91
2018-10-17T05:15:40.837Z,39.96
2018-10-17T05:18:10.031Z,40.69
2018-10-17T05:20:39.110Z,41.66
2018-10-17T05:23:08.013Z,41.74
2018-10-17T05:25:36.717Z,42.63
2018-10-17T05:28:06.342Z,43.04
2018-10-17T05:30:35.051Z,43.37
2018-10-17T05:33:04.140Z,43.17
2018-10-17T05:35:33.016Z,43.26
2018-10-17T05:38:02.298Z,43.33
2018-10-17T05:40:31.168Z,43.52
2018-10-17T05:43:00.050Z,44.15
2018-10-17T05:45:28.990Z,44.33
2018-10-17T05:47:57.708Z,44.21
2018-10-17T05:50:26.451Z,44.23
2018-10-17T05:52:55.240Z,43.95
2018-10-17T05:55:25.070Z,44.52
2018-10-17T05:57:54.002Z,44.41
2018-10-17T06:00:23.005Z,44.11
2018-10-17T06:02:51.865Z,44.22
2018-10-17T06:05:20.661Z,44.09
2018-10-17T06:07:49.585Z,44.77
2018-10-17T06:10:18.439Z,44.22
2018-10-17T06:12:47.209Z,44.33
2018-10-17T06:15:16.013Z,44.78
2018-10-17T06:17:44.821Z,44.31
2018-10-17T06:20:13.664Z,44.28
2018-10-17T06:22:42.562Z,44.68
2018-10-17T06:25:11.476Z,44.94
2018-10-17T06:27:40.189Z,44.69
2018-10-17T06:30:10.276Z,45.03
2018-10-17T06:32:39.434Z,44.96
2018-10-17T06:35:08.681Z,44.39
2018-10-17T06:37:38.259Z,45.00
2018-10-17T06:40:07.998Z,44.46
2018-10-17T06:42:36.763Z,44.97
2018-10-17T06:45:05.873Z,44.54
2018-10-17T06:47:34.705Z,44.57
2018-10-17T06:50:03.983Z,44.53
2018-10-17T06:52:32.782Z,44.61
2018-10-17T06:55:01.619Z,44.66
2018-10-17T06:57:30.463Z,44.47
2018-10-17T06:59:59.273Z,44.83
2018-10-17T07:02:28.154Z,44.56
2018-10-17T07:04:56.905Z,44.54
2018-10-17T07:07:25.678Z,45.04
2018-10-17T07:09:54.537Z,45.09
2018-10-17T07:12:23.401Z,44.48
2018-10-17T07:14:52.247Z,44.63
2018-10-17T07:17:21.083Z,44.46
2018-10-17T07:19:50.708Z,44.54
2018-10-17T07:22:19.499Z,44.54
2018-10-17T07:24:48.420Z,44.92
2018-10-17T07:27:17.200Z,45.00
2018-10-17T07:29:46.297Z,44.38
2018-10-17T07:32:14.961Z,44.34
2018-10-17T07:34:43.821Z,44.23
2018-10-17T07:37:12.661Z,44.30
2018-10-17T07:39:41.465Z,44.89
2018-10-17T07:42:10.445Z,44.37
2018-10-17T07:44:39.325Z,44.21
2018-10-17T07:47:08.092Z,44.79
2018-10-17T07:49:36.955Z,44.92
2018-10-17T07:52:06.199Z,44.77
2018-10-17T07:54:34.991Z,44.75
2018-10-17T07:57:04.173Z,44.06
2018-10-17T07:59:34.017Z,44.44
2018-10-17T08:02:02.989Z,44.52
2018-10-17T08:04:31.836Z,44.51
2018-10-17T08:07:00.706Z,44.49
2018-10-17T08:09:29.485Z,43.87
2018-10-17T08:11:58.368Z,43.82
2018-10-17T08:14:27.158Z,44.42
2018-10-17T08:16:56.070Z,44.43
2018-10-17T08:19:25.018Z,43.87
2018-10-17T08:21:53.955Z,43.82
2018-10-17T08:24:22.852Z,44.39
2018-10-17T08:26:51.747Z,44.34
2018-10-17T08:29:20.607Z,43.75
2018-10-17T08:31:49.474Z,44.40
2018-10-17T08:34:18.262Z,44.26
2018-10-17T08:36:47.560Z,43.79
2018-10-17T08:39:16.073Z,43.82
2018-10-17T08:41:44.829Z,44.35
2018-10-17T08:44:13.819Z,44.25
2018-10-17T08:46:42.545Z,44.17
2018-10-17T08:49:11.312Z,43.66
2018-10-17T08:51:40.262Z,43.69
2018-10-17T08:54:09.191Z,43.77
2018-10-17T08:56:37.959Z,44.08
2018-10-17T08:59:06.785Z,43.73
2018-10-17T09:01:35.636Z,43.72
2018-10-17T09:04:08.222Z,44.17
2018-10-17T09:06:36.981Z,43.79
2018-10-17T09:09:10.893Z,44.17
2018-10-17T09:11:40.334Z,43.74
2018-10-17T09:14:09.545Z,43.77
2018-10-17T09:16:38.667Z,44.05
2018-10-17T09:19:08.234Z,43.61
2018-10-17T09:21:37.356Z,43.75
2018-10-17T09:24:05.981Z,43.53
2018-10-17T09:26:35.037Z,43.47
2018-10-17T09:29:04.077Z,44.03
2018-10-17T09:31:32.981Z,43.96
2018-10-17T09:34:01.923Z,43.89
2018-10-17T09:36:30.663Z,43.94
2018-10-17T09:38:59.494Z,43.33
2018-10-17T09:41:28.324Z,43.92
2018-10-17T09:43:57.886Z,43.33
2018-10-17T09:46:26.776Z,43.46
2018-10-17T09:48:55.559Z,43.15
2018-10-17T09:51:24.304Z,43.83
2018-10-17T09:53:53.254Z,43.70
2018-10-17T09:56:22.092Z,43.18
2018-10-17T09:58:50.874Z,43.16
2018-10-17T10:01:25.064Z,43.62
2018-10-17T10:03:53.924Z,43.11
2018-10-17T10:06:22.804Z,43.12
2018-10-17T10:08:51.628Z,43.10
2018-10-17T10:11:20.514Z,43.73
2018-10-17T10:13:49.403Z,43.08
2018-10-17T10:16:18.263Z,43.06
2018-10-17T10:18:47.081Z,43.41
2018-10-17T10:21:15.831Z,43.44
2018-10-17T10:23:44.774Z,43.45
2018-10-17T10:26:13.520Z,43.39
2018-10-17T10:28:42.410Z,43.59
2018-10-17T10:31:11.106Z,43.37
2018-10-17T10:33:39.871Z,43.50
2018-10-17T10:36:08.675Z,43.49
2018-10-17T10:38:37.570Z,43.48
2018-10-17T10:41:07.003Z,43.54
2018-10-17T10:43:35.809Z,42.79
2018-10-17T10:46:05.125Z,42.83
2018-10-17T10:48:33.905Z,42.91
2018-10-17T10:51:02.752Z,42.97
2018-10-17T10:53:32.240Z,43.54
2018-10-17T10:56:01.079Z,42.88
2018-10-17T10:58:30.101Z,43.25
2018-10-17T11:00:59.110Z,43.43
2018-10-17T11:03:27.973Z,42.83
2018-10-17T11:05:57.106Z,42.81
2018-10-17T11:08:26.626Z,43.04
2018-10-17T11:10:55.807Z,43.39
2018-10-17T11:13:24.562Z,42.74
2018-10-17T11:15:53.357Z,42.81
2018-10-17T11:18:22.145Z,42.80
2018-10-17T11:20:51.082Z,43.17
2018-10-17T11:23:20.063Z,43.28
2018-10-17T11:25:48.965Z,43.27
2018-10-17T11:28:17.826Z,43.20
2018-10-17T11:30:46.705Z,43.17
2018-10-17T11:33:15.556Z,42.79
2018-10-17T11:35:44.362Z,42.60
2018-10-17T11:38:13.226Z,43.33
2018-10-17T11:40:42.071Z,42.92
2018-10-17T11:43:10.870Z,42.61
2018-10-17T11:45:39.626Z,42.82
2018-10-17T11:48:08.424Z,42.49
2018-10-17T11:50:37.297Z,42.58
2018-10-17T11:53:06.105Z,42.85
2018-10-17T11:55:34.966Z,42.57
2018-10-17T11:58:03.824Z,43.04
2018-10-17T12:00:32.594Z,42.46
2018-10-17T12:03:01.446Z,42.51
2018-10-17T12:05:30.545Z,42.56
2018-10-17T12:07:59.194Z,43.08
2018-10-17T12:10:28.008Z,42.93
2018-10-17T12:12:56.866Z,42.89
2018-10-17T12:15:25.653Z,42.91
2018-10-17T12:17:54.487Z,42.79
2018-10-17T12:20:23.294Z,42.83
2018-10-17T12:22:52.164Z,42.51
2018-10-17T12:25:21.135Z,42.27
2018-10-17T12:27:50.076Z,42.85
2018-10-17T12:30:18.888Z,42.89
2018-10-17T12:32:47.672Z,42.83
2018-10-17T12:35:16.591Z,42.40
2018-10-17T12:37:45.344Z,42.77
2018-10-17T12:40:14.137Z,42.32
2018-10-17T12:42:42.921Z,42.17
2018-10-17T12:45:11.770Z,42.13
2018-10-17T12:47:40.593Z,42.19
2018-10-17T12:50:10.156Z,42.69
2018-10-17T12:52:39.001Z,42.69
2018-10-17T12:55:08.688Z,42.73
2018-10-17T12:57:37.493Z,42.03
2018-10-17T13:00:07.940Z,42.06
2018-10-17T13:02:36.754Z,42.63
2018-10-17T13:05:06.805Z,42.67
2018-10-17T13:07:35.690Z,42.73
2018-10-17T13:10:04.773Z,42.67
2018-10-17T13:12:33.713Z,42.52
2018-10-17T13:15:02.762Z,42.24
2018-10-17T13:17:31.534Z,41.99
2018-10-17T13:20:00.333Z,42.19
2018-10-17T13:22:29.131Z,42.54
2018-10-17T13:24:57.967Z,42.53
2018-10-17T13:27:26.787Z,42.63
2018-10-17T13:29:55.595Z,42.04
2018-10-17T13:32:24.424Z,42.63
2018-10-17T13:34:53.208Z,42.53
2018-10-17T13:37:21.980Z,42.58
2018-10-17T13:39:50.826Z,42.02
2018-10-17T13:42:19.632Z,42.56
2018-10-17T13:44:48.470Z,42.05
2018-10-17T13:47:17.325Z,41.76
2018-10-17T13:49:46.327Z,42.02
2018-10-17T13:52:15.114Z,42.00
2018-10-17T13:54:43.944Z,42.51
2018-10-17T13:57:12.701Z,41.96
2018-10-17T13:59:41.459Z,42.59
2018-10-17T14:02:10.269Z,41.95
2018-10-17T14:04:39.131Z,41.97
2018-10-17T14:07:07.965Z,41.96
2018-10-17T14:09:36.811Z,42.54
2018-10-17T14:12:06.349Z,41.95
2018-10-17T14:14:35.189Z,42.54
2018-10-17T14:17:04.318Z,42.50
2018-10-17T14:22:00.825Z,41.90
2018-10-17T14:24:29.694Z,42.47
2018-10-17T14:26:58.506Z,41.94
2018-10-17T14:29:27.318Z,42.00
2018-10-17T14:31:56.192Z,42.49
2018-10-17T14:34:24.980Z,42.50
2018-10-17T14:36:53.831Z,41.89
2018-10-17T14:39:22.714Z,42.45
2018-10-17T14:41:51.358Z,42.47
2018-10-17T14:44:20.197Z,41.93
2018-10-17T14:46:48.982Z,41.79
2018-10-17T14:49:17.812Z,41.78
2018-10-17T14:51:47.312Z,41.94
2018-10-17T14:54:16.105Z,41.86
2018-10-17T14:56:44.958Z,42.60
2018-10-17T14:59:13.808Z,42.44
2018-10-17T15:01:42.602Z,42.47
2018-10-17T15:04:11.456Z,41.74
2018-10-17T15:06:40.285Z,42.19
2018-10-17T15:09:09.756Z,41.83
2018-10-17T15:11:39.651Z,42.26
2018-10-17T15:14:08.742Z,42.37
2018-10-17T15:16:37.874Z,42.43
2018-10-17T15:19:06.888Z,41.94
2018-10-17T15:21:36.115Z,41.81
2018-10-17T15:24:05.141Z,41.73
2018-10-17T15:26:33.925Z,42.35
2018-10-17T15:29:02.830Z,42.41
2018-10-17T15:31:31.697Z,41.86
2018-10-17T15:34:00.501Z,41.76
2018-10-17T15:36:29.384Z,41.82
2018-10-17T15:38:58.248Z,41.76
2018-10-17T15:41:27.053Z,42.35
2018-10-17T15:43:55.852Z,41.92
2018-10-17T15:46:24.695Z,42.36
2018-10-17T15:48:53.495Z,41.79
2018-10-17T15:51:22.374Z,42.39
2018-10-17T15:53:51.252Z,41.94
2018-10-17T15:56:20.073Z,41.60
2018-10-17T15:58:48.934Z,42.35
2018-10-17T16:01:17.853Z,42.42
2018-10-17T16:03:46.658Z,41.80
2018-10-17T16:06:15.624Z,42.19
2018-10-17T16:08:45.431Z,41.96
2018-10-17T16:11:14.277Z,42.18
2018-10-17T16:13:43.160Z,42.31
2018-10-17T16:16:12.078Z,41.83
2018-10-17T16:18:40.966Z,41.81
2018-10-17T16:21:09.935Z,42.32
2018-10-17T16:23:38.744Z,42.16
2018-10-17T16:26:07.827Z,42.34
2018-10-17T16:28:36.742Z,41.88
2018-10-17T16:31:06.727Z,42.55
2018-10-17T16:33:35.565Z,42.58
2018-10-17T16:36:05.364Z,42.10
2018-10-17T16:38:34.556Z,42.29
2018-10-17T16:41:03.500Z,42.03
2018-10-17T16:43:32.320Z,42.66
2018-10-17T16:46:01.261Z,42.65
2018-10-17T16:48:30.270Z,42.58
2018-10-17T16:50:59.157Z,42.05
2018-10-17T16:53:28.176Z,42.06
2018-10-17T16:55:57.013Z,42.42
2018-10-17T16:58:25.941Z,42.59
2018-10-17T17:00:54.928Z,42.06
2018-10-17T17:03:24.357Z,41.99
2018-10-17T17:05:53.179Z,42.66
2018-10-17T17:08:22.148Z,42.10
2018-10-17T17:10:50.973Z,42.41
2018-10-17T17:13:19.864Z,42.35
2018-10-17T17:15:48.758Z,41.93
2018-10-17T17:18:17.731Z,42.03
2018-10-17T17:20:46.734Z,42.23
2018-10-17T17:23:15.556Z,41.93
2018-10-17T17:25:44.422Z,41.99
2018-10-17T17:28:13.281Z,42.54
2018-10-17T17:30:42.279Z,42.00
2018-10-17T17:33:11.229Z,42.51
2018-10-17T17:35:40.023Z,42.49
2018-10-17T17:38:08.883Z,42.12
2018-10-17T17:40:37.748Z,42.24
2018-10-17T17:43:06.617Z,42.31
2018-10-17T17:45:35.507Z,42.13
2018-10-17T17:48:04.638Z,41.92
2018-10-17T17:50:33.478Z,42.29
2018-10-17T17:53:02.461Z,42.49
2018-10-17T17:55:31.395Z,42.33
2018-10-17T17:58:00.393Z,41.96
2018-10-17T18:00:29.371Z,42.46
2018-10-17T18:02:58.273Z,42.12
2018-10-17T18:05:27.111Z,41.97
2018-10-17T18:07:55.984Z,41.94
2018-10-17T18:10:24.851Z,41.85
2018-10-17T18:12:53.818Z,42.44
2018-10-17T18:15:22.738Z,42.06
2018-10-17T18:17:51.603Z,42.39
2018-10-17T18:20:20.470Z,41.89
2018-10-17T18:22:49.408Z,41.94
2018-10-17T18:25:18.219Z,41.93
2018-10-17T18:27:47.850Z,42.23
2018-10-17T18:30:16.701Z,41.93
2018-10-17T18:32:45.615Z,42.04
2018-10-17T18:35:14.556Z,42.41
2018-10-17T18:37:43.464Z,41.88
2018-10-17T18:40:12.452Z,41.89
2018-10-17T18:42:41.334Z,42.44
2018-10-17T18:45:10.267Z,41.94
2018-10-17T18:47:39.270Z,42.46
2018-10-17T18:50:08.564Z,42.42
2018-10-17T18:52:37.460Z,42.43
2018-10-17T18:55:07.582Z,42.50
2018-10-17T18:57:36.457Z,41.79
2018-10-17T19:00:07.169Z,42.34
2018-10-17T19:02:36.042Z,41.82
2018-10-17T19:05:05.023Z,42.54
2018-10-17T19:07:33.872Z,41.96
2018-10-17T19:10:02.775Z,41.90
2018-10-17T19:12:31.712Z,41.92
2018-10-17T19:15:00.679Z,41.88
2018-10-17T19:17:29.525Z,41.89
2018-10-17T19:19:58.383Z,42.39
2018-10-17T19:22:27.305Z,41.76
2018-10-17T19:24:56.149Z,41.85
2018-10-17T19:27:25.068Z,42.34
2018-10-17T19:29:53.888Z,41.85
2018-10-17T19:32:22.688Z,41.72
2018-10-17T19:34:51.554Z,42.27
2018-10-17T19:37:20.408Z,41.78
2018-10-17T19:39:49.259Z,42.29
2018-10-17T19:42:18.111Z,42.20
2018-10-17T19:44:46.953Z,42.11
2018-10-17T19:47:15.752Z,42.27
2018-10-17T19:49:44.612Z,41.82
2018-10-17T19:52:13.418Z,41.65
2018-10-17T19:54:42.294Z,42.24
2018-10-17T19:57:11.179Z,41.74
2018-10-17T19:59:40.032Z,41.68
2018-10-17T20:02:08.986Z,42.22
2018-10-17T20:04:37.865Z,41.69
2018-10-17T20:07:06.792Z,42.25
2018-10-17T20:09:35.740Z,41.61
2018-10-17T20:12:04.654Z,42.22
2018-10-17T20:14:33.419Z,41.72
2018-10-17T20:17:02.324Z,41.98
2018-10-17T20:19:31.249Z,42.17
2018-10-17T20:22:00.098Z,42.23
2018-10-17T20:24:29.024Z,42.33
2018-10-17T20:26:58.104Z,42.36
2018-10-17T20:29:27.075Z,42.46
2018-10-17T20:31:55.969Z,41.84
2018-10-17T20:34:24.881Z,42.47
2018-10-17T20:36:54.770Z,41.88
2018-10-17T20:39:23.666Z,42.41
2018-10-17T20:41:52.551Z,42.59
2018-10-17T20:44:21.573Z,42.54
2018-10-17T20:46:50.509Z,42.54
2018-10-17T20:49:19.375Z,42.38
2018-10-17T20:51:48.325Z,42.08
2018-10-17T20:54:17.265Z,42.55
2018-10-17T20:56:46.453Z,42.11
2018-10-17T20:59:15.370Z,42.15
2018-10-17T21:01:44.312Z,42.67
2018-10-17T21:04:13.209Z,42.53
2018-10-17T21:06:42.295Z,42.83
2018-10-17T21:09:13.225Z,42.27
2018-10-17T21:11:42.056Z,42.37
2018-10-17T21:14:11.343Z,42.31
2018-10-17T21:16:41.159Z,42.88
2018-10-17T21:19:10.134Z,42.88
2018-10-17T21:21:39.029Z,42.94
2018-10-17T21:24:07.938Z,42.90
2018-10-17T21:26:36.844Z,42.37
2018-10-17T21:29:06.241Z,42.45
2018-10-17T21:31:34.992Z,42.47
2018-10-17T21:34:05.018Z,43.04
2018-10-17T21:36:33.914Z,42.62
2018-10-17T21:39:03.035Z,43.06
2018-10-17T21:41:32.103Z,42.90
2018-10-17T21:44:01.011Z,42.72
2018-10-17T21:46:29.983Z,43.24
2018-10-17T21:48:58.852Z,43.20
2018-10-17T21:51:27.659Z,43.76
2018-10-17T21:53:56.545Z,43.65
2018-10-17T21:56:25.325Z,43.17
2018-10-17T21:58:54.120Z,43.65
2018-10-17T22:01:22.974Z,43.66
2018-10-17T22:03:51.831Z,43.22
2018-10-17T22:06:20.681Z,43.34
2018-10-17T22:08:49.507Z,43.47
2018-10-17T22:11:18.351Z,42.90
2018-10-17T22:13:47.145Z,42.82
2018-10-17T22:16:16.009Z,43.25
2018-10-17T22:18:44.848Z,42.83
2018-10-17T22:21:13.682Z,43.17
2018-10-17T22:23:42.643Z,42.70
2018-10-17T22:26:11.498Z,43.23
2018-10-17T22:28:40.333Z,42.72
2018-10-17T22:31:09.164Z,42.63
2018-10-17T22:33:38.095Z,42.73
2018-10-17T22:36:06.915Z,42.59
2018-10-17T22:38:35.744Z,43.03
2018-10-17T22:41:04.679Z,42.51
2018-10-17T22:43:33.398Z,42.55
2018-10-17T22:46:02.236Z,42.60
2018-10-17T22:48:31.072Z,43.10
2018-10-17T22:50:59.877Z,42.54
2018-10-17T22:53:28.675Z,43.08
2018-10-17T22:55:57.475Z,42.94
2018-10-17T22:58:26.497Z,42.93
2018-10-17T23:00:55.322Z,42.50
2018-10-17T23:03:24.118Z,42.97
2018-10-17T23:05:52.878Z,42.77
2018-10-17T23:08:21.723Z,43.02
2018-10-17T23:10:50.531Z,42.40
2018-10-17T23:13:20.460Z,42.35
2018-10-17T23:15:49.331Z,42.47
2018-10-17T23:18:18.122Z,42.96
2018-10-17T23:20:46.993Z,42.38
2018-10-17T23:23:15.775Z,42.81
2018-10-17T23:25:44.557Z,42.39
2018-10-17T23:28:13.340Z,42.38
2018-10-17T23:30:42.169Z,42.29
2018-10-17T23:33:10.943Z,42.34
2018-10-17T23:35:39.709Z,42.88
2018-10-17T23:38:08.639Z,42.88
2018-10-17T23:40:37.467Z,42.54
2018-10-17T23:43:07.593Z,42.27
2018-10-17T23:45:36.414Z,42.94
2018-10-17T23:48:06.011Z,42.36
2018-10-17T23:50:34.903Z,42.37
2018-10-17T23:53:03.798Z,42.40
2018-10-17T23:55:32.620Z,42.33
2018-10-17T23:58:01.397Z,42.39
